| time (UTC) | temp F | wind direction | speed knots | gust knots | rain 1hr in | rain 24hr in | rain mn in | humidity % | barometer mb |
| 20260509075040 | 70 | 104 | 0.9 | 0.9 | 0.00 | 0.00 | 0.00 | 88 | 1008.9 |
| 20260509074537 | 70 | 101 | 0.0 | 0.0 | 0.00 | 0.00 | 0.00 | 88 | 1009.2 |
| 20260509074034 | 69 | 103 | 0.9 | 0.9 | 0.00 | 0.00 | 0.00 | 88 | 1009.4 |
| 20260509073530 | 69 | 112 | 0.0 | 0.0 | 0.00 | 0.00 | 0.00 | 89 | 1009.5 |
| 20260509073027 | 69 | 103 | 0.9 | 0.9 | 0.00 | 0.00 | 0.00 | 89 | 1009.8 |
| 20260509072523 | 69 | 116 | 0.0 | 0.0 | 0.00 | 0.00 | 0.00 | 88 | 1010.0 |
| 20260509072020 | 69 | 117 | 0.0 | 0.0 | 0.00 | 0.00 | 0.00 | 88 | 1010.0 |
| 20260509071517 | 69 | 97 | 0.0 | 0.0 | 0.00 | 0.00 | 0.00 | 88 | 1010.1 |
| 20260509071014 | 69 | 99 | 0.9 | 0.9 | 0.00 | 0.00 | 0.00 | 88 | 1010.1 |
| 20260509070512 | 69 | 100 | 0.0 | 0.0 | 0.00 | 0.00 | 0.00 | 88 | 1010.3 |
| 20260509070008 | 69 | 100 | 0.0 | 0.0 | 0.00 | 0.00 | 0.00 | 88 | 1010.3 |
| 20260509065503 | 69 | 121 | 0.0 | 0.0 | 0.00 | 0.00 | 0.00 | 87 | 1010.3 |
| 20260509064959 | 69 | 125 | 0.0 | 0.0 | 0.00 | 0.00 | 0.00 | 87 | 1010.3 |
| 20260509064457 | 69 | 135 | 0.0 | 0.0 | 0.00 | 0.00 | 0.00 | 87 | 1010.3 |
| 20260509063955 | 69 | 137 | 0.0 | 0.0 | 0.00 | 0.00 | 0.00 | 86 | 1010.5 |
| 20260509063450 | 69 | 136 | 0.9 | 0.9 | 0.00 | 0.00 | 0.00 | 86 | 1010.4 |
| 20260509062948 | 69 | 123 | 0.9 | 0.9 | 0.00 | 0.00 | 0.00 | 86 | 1010.2 |
| 20260509062445 | 69 | 119 | 0.9 | 0.9 | 0.00 | 0.00 | 0.00 | 86 | 1010.1 |
| 20260509061943 | 69 | 111 | 0.0 | 0.0 | 0.00 | 0.00 | 0.00 | 86 | 1009.7 |
| 20260509061439 | 69 | 115 | 0.9 | 0.9 | 0.00 | 0.00 | 0.00 | 85 | 1009.7 |
| 20260509060937 | 69 | 110 | 0.0 | 0.0 | 0.00 | 0.00 | 0.00 | 85 | 1009.7 |
| 20260509060434 | 69 | 111 | 0.9 | 0.9 | 0.00 | 0.00 | 0.00 | 85 | 1009.5 |
| 20260509055929 | 70 | 61 | 0.9 | 0.9 | 0.00 | 0.00 | 0.00 | 85 | 1009.9 |
| 20260509055425 | 70 | 101 | 0.0 | 0.0 | 0.00 | 0.00 | 0.00 | 85 | 1009.7 |
| 20260509054921 | 70 | 60 | 0.0 | 0.0 | 0.00 | 0.00 | 0.00 | 84 | 1009.5 |
| 20260509054418 | 70 | 123 | 0.0 | 0.0 | 0.00 | 0.00 | 0.00 | 85 | 1009.6 |
| 20260509053916 | 69 | 101 | 0.9 | 0.9 | 0.00 | 0.00 | 0.00 | 85 | 1009.8 |
| 20260509053414 | 70 | 106 | 0.0 | 0.0 | 0.00 | 0.00 | 0.00 | 84 | 1010.3 |
| 20260509052912 | 70 | 103 | 0.0 | 0.0 | 0.00 | 0.00 | 0.00 | 84 | 1010.3 |
| 20260509052409 | 70 | 103 | 0.0 | 0.0 | 0.00 | 0.00 | 0.00 | 85 | 1010.6 |
| 20260509051907 | 69 | 103 | 0.0 | 0.0 | 0.00 | 0.00 | 0.00 | 86 | 1010.8 |
| 20260509051405 | 69 | 103 | 0.0 | 0.0 | 0.00 | 0.00 | 0.00 | 85 | 1011.1 |
| 20260509050901 | 69 | 103 | 0.0 | 0.0 | 0.00 | 0.00 | 0.00 | 85 | 1010.7 |
| 20260509050358 | 69 | 103 | 0.0 | 0.0 | 0.00 | 0.00 | 0.00 | 85 | 1010.8 |
| 20260509045854 | 69 | 103 | 0.0 | 0.0 | 0.00 | 0.23 | 0.23 | 86 | 1011.3 |
| 20260509045351 | 69 | 124 | 0.0 | 0.0 | 0.00 | 0.23 | 0.23 | 86 | 1011.4 |
| 20260509044848 | 70 | 121 | 0.0 | 0.9 | 0.00 | 0.23 | 0.23 | 84 | 1011.0 |
| 20260509044346 | 70 | 109 | 0.0 | 0.0 | 0.00 | 0.23 | 0.23 | 83 | 1010.5 |
| 20260509043843 | 70 | 108 | 0.0 | 0.0 | 0.00 | 0.23 | 0.23 | 82 | 1010.3 |
| 20260509043339 | 70 | 109 | 0.0 | 0.0 | 0.00 | 0.23 | 0.23 | 81 | 1010.1 |
| 20260509042835 | 70 | 107 | 0.0 | 0.0 | 0.00 | 0.23 | 0.23 | 80 | 1009.9 |
| 20260509042331 | 70 | 106 | 0.0 | 0.9 | 0.00 | 0.23 | 0.23 | 80 | 1010.1 |
| 20260509041828 | 71 | 103 | 0.0 | 0.0 | 0.00 | 0.23 | 0.23 | 80 | 1010.0 |
| 20260509041325 | 71 | 85 | 0.9 | 0.9 | 0.00 | 0.23 | 0.23 | 79 | 1009.9 |
| 20260509040823 | 71 | 109 | 0.0 | 0.0 | 0.00 | 0.23 | 0.23 | 79 | 1009.5 |
| 20260509040320 | 71 | 102 | 0.9 | 1.7 | 0.00 | 0.23 | 0.23 | 79 | 1009.2 |
| 20260509035817 | 71 | 114 | 0.9 | 0.9 | 0.00 | 0.23 | 0.23 | 78 | 1009.1 |
| 20260509035315 | 71 | 102 | 0.9 | 0.9 | 0.00 | 0.23 | 0.23 | 78 | 1009.6 |
| 20260509034810 | 71 | 117 | 0.0 | 0.0 | 0.00 | 0.23 | 0.23 | 78 | 1009.4 |
| 20260509034309 | 71 | 106 | 0.0 | 0.0 | 0.00 | 0.23 | 0.23 | 77 | 1009.0 |
| 20260509033805 | 72 | 150 | 0.0 | 0.9 | 0.00 | 0.23 | 0.23 | 77 | 1009.0 |
| 20260509033302 | 72 | 105 | 0.9 | 1.7 | 0.00 | 0.23 | 0.23 | 78 | 1009.6 |
| 20260509032759 | 72 | 119 | 1.7 | 3.5 | 0.00 | 0.23 | 0.23 | 76 | 1010.0 |
| 20260509032256 | 72 | 93 | 0.0 | 0.0 | 0.00 | 0.23 | 0.23 | 76 | 1011.1 |
| 20260509031753 | 72 | 93 | 0.0 | 0.0 | 0.00 | 0.23 | 0.23 | 75 | 1010.8 |
| 20260509031251 | 72 | 93 | 0.0 | 0.0 | 0.00 | 0.23 | 0.23 | 75 | 1010.5 |
| 20260509030749 | 72 | 101 | 0.0 | 0.0 | 0.00 | 0.23 | 0.23 | 75 | 1010.3 |
| 20260509030246 | 72 | 102 | 0.0 | 0.0 | 0.00 | 0.23 | 0.23 | 75 | 1010.5 |
| 20260509025743 | 72 | 94 | 0.0 | 0.0 | 0.00 | 0.23 | 0.23 | 75 | 1010.3 |
| 20260509025238 | 72 | 105 | 0.0 | 0.0 | 0.00 | 0.23 | 0.23 | 75 | 1010.2 |
| 20260509024734 | 72 | 120 | 0.0 | 0.0 | 0.00 | 0.23 | 0.23 | 75 | 1010.1 |
| 20260509024230 | 72 | 97 | 0.0 | 0.0 | 0.00 | 0.23 | 0.23 | 75 | 1009.9 |
| 20260509023728 | 72 | 93 | 0.0 | 0.0 | 0.00 | 0.23 | 0.23 | 75 | 1009.8 |
| 20260509023225 | 72 | 93 | 0.0 | 0.0 | 0.00 | 0.23 | 0.23 | 75 | 1009.9 |
| 20260509022720 | 72 | 93 | 0.0 | 0.0 | 0.00 | 0.23 | 0.23 | 75 | 1009.6 |
| 20260509022219 | 72 | 94 | 0.0 | 0.0 | 0.00 | 0.23 | 0.23 | 75 | 1009.5 |
| 20260509021715 | 72 | 129 | 0.0 | 0.0 | 0.00 | 0.23 | 0.23 | 76 | 1009.2 |
| 20260509021213 | 72 | 107 | 0.0 | 0.0 | 0.00 | 0.23 | 0.23 | 75 | 1008.7 |
| 20260509020711 | 72 | 97 | 0.9 | 0.9 | 0.00 | 0.23 | 0.23 | 74 | 1008.6 |
| 20260509020207 | 72 | 101 | 0.0 | 0.9 | 0.00 | 0.23 | 0.23 | 74 | 1008.5 |
| 20260509015706 | 72 | 107 | 0.9 | 0.9 | 0.00 | 0.23 | 0.23 | 73 | 1008.6 |
| 20260509015203 | 73 | 106 | 0.0 | 0.0 | 0.00 | 0.23 | 0.23 | 72 | 1008.7 |
| 20260509014700 | 73 | 100 | 0.9 | 0.9 | 0.00 | 0.23 | 0.23 | 72 | 1008.7 |
| 20260509014156 | 73 | 107 | 1.7 | 1.7 | 0.00 | 0.23 | 0.23 | 72 | 1008.5 |
| 20260509013653 | 73 | 100 | 0.9 | 0.9 | 0.00 | 0.23 | 0.23 | 71 | 1008.5 |
| 20260509013149 | 73 | 107 | 0.0 | 0.0 | 0.00 | 0.23 | 0.23 | 71 | 1008.5 |
| 20260509012645 | 73 | 91 | 0.0 | 0.0 | 0.00 | 0.23 | 0.23 | 70 | 1008.5 |
| 20260509012143 | 74 | 93 | 0.0 | 0.0 | 0.00 | 0.23 | 0.23 | 70 | 1008.6 |
| 20260509011641 | 74 | 106 | 0.9 | 0.9 | 0.00 | 0.23 | 0.23 | 70 | 1008.5 |
| 20260509011138 | 74 | 119 | 0.0 | 0.9 | 0.00 | 0.23 | 0.23 | 70 | 1008.5 |
| 20260509010635 | 74 | 97 | 0.9 | 0.9 | 0.00 | 0.23 | 0.23 | 69 | 1008.8 |
| 20260509010131 | 74 | 103 | 0.9 | 0.9 | 0.00 | 0.23 | 0.23 | 69 | 1008.6 |
| 20260509005629 | 74 | 117 | 0.9 | 1.7 | 0.00 | 0.23 | 0.23 | 69 | 1008.6 |
| 20260509005125 | 74 | 109 | 0.9 | 0.9 | 0.00 | 0.23 | 0.23 | 68 | 1008.6 |
| 20260509004621 | 75 | 104 | 0.9 | 0.9 | 0.00 | 0.23 | 0.23 | 68 | 1008.4 |
| 20260509004118 | 75 | 121 | 0.9 | 0.9 | 0.00 | 0.23 | 0.23 | 68 | 1008.3 |
| 20260509003617 | 75 | 101 | 1.7 | 2.6 | 0.00 | 0.23 | 0.23 | 67 | 1008.1 |
| 20260509003114 | 75 | 131 | 0.9 | 0.9 | 0.00 | 0.23 | 0.23 | 67 | 1007.9 |
| 20260509002611 | 75 | 100 | 0.0 | 0.0 | 0.00 | 0.23 | 0.23 | 67 | 1008.1 |
| 20260509002108 | 75 | 107 | 0.9 | 0.9 | 0.00 | 0.23 | 0.23 | 66 | 1008.1 |
| 20260509001606 | 76 | 126 | 0.9 | 1.7 | 0.00 | 0.23 | 0.23 | 65 | 1008.2 |
| 20260509001101 | 76 | 115 | 0.9 | 0.9 | 0.00 | 0.23 | 0.23 | 65 | 1008.1 |
| 20260509000600 | 76 | 103 | 0.9 | 1.7 | 0.00 | 0.23 | 0.23 | 65 | 1008.0 |
| 20260509000056 | 77 | 161 | 1.7 | 2.6 | 0.00 | 0.23 | 0.23 | 63 | 1008.3 |
| 20260508235554 | 77 | 93 | 0.0 | 0.9 | 0.00 | 0.23 | 0.23 | 64 | 1008.2 |
| 20260508235050 | 78 | 111 | 1.7 | 1.7 | 0.00 | 0.23 | 0.23 | 63 | 1008.2 |
| 20260508234547 | 78 | 115 | 0.9 | 0.9 | 0.00 | 0.23 | 0.23 | 62 | 1008.3 |
| 20260508234044 | 78 | 151 | 0.9 | 0.9 | 0.00 | 0.23 | 0.23 | 61 | 1008.3 |
| 20260508233543 | 79 | 99 | 0.9 | 0.9 | 0.00 | 0.23 | 0.23 | 60 | 1008.4 |
| 20260508233040 | 80 | 87 | 0.9 | 0.9 | 0.00 | 0.23 | 0.23 | 58 | 1008.5 |
| 20260508232537 | 80 | 153 | 0.9 | 1.7 | 0.00 | 0.23 | 0.23 | 58 | 1008.4 |
| 20260508232034 | 81 | 111 | 1.7 | 1.7 | 0.00 | 0.23 | 0.23 | 57 | 1008.5 |
| 20260508231532 | 82 | 132 | 1.7 | 2.6 | 0.00 | 0.23 | 0.23 | 56 | 1008.5 |
| 20260508231029 | 81 | 111 | 0.0 | 0.9 | 0.00 | 0.23 | 0.23 | 57 | 1008.3 |
| 20260508230525 | 81 | 110 | 0.9 | 1.7 | 0.00 | 0.23 | 0.23 | 56 | 1008.4 |
| 20260508230022 | 80 | 132 | 0.0 | 0.0 | 0.00 | 0.23 | 0.23 | 60 | 1008.4 |
| 20260508225519 | 80 | 129 | 0.9 | 0.9 | 0.00 | 0.23 | 0.23 | 60 | 1008.5 |
| 20260508225016 | 80 | 118 | 1.7 | 2.6 | 0.00 | 0.23 | 0.23 | 59 | 1008.4 |
| 20260508224514 | 81 | 83 | 1.7 | 2.6 | 0.00 | 0.23 | 0.23 | 57 | 1008.4 |
| 20260508224011 | 82 | 15 | 0.9 | 0.9 | 0.00 | 0.23 | 0.23 | 56 | 1008.7 |
| 20260508223509 | 83 | 114 | 0.9 | 0.9 | 0.00 | 0.23 | 0.23 | 54 | 1008.5 |
| 20260508223006 | 84 | 131 | 0.9 | 0.9 | 0.00 | 0.23 | 0.23 | 53 | 1008.6 |
| 20260508222503 | 83 | 120 | 0.0 | 0.9 | 0.00 | 0.23 | 0.23 | 54 | 1008.6 |
| 20260508221959 | 82 | 104 | 0.0 | 0.0 | 0.00 | 0.23 | 0.23 | 54 | 1008.6 |
| 20260508221455 | 82 | 107 | 0.0 | 0.0 | 0.00 | 0.23 | 0.23 | 54 | 1008.5 |
| 20260508220952 | 83 | 120 | 0.9 | 0.9 | 0.00 | 0.23 | 0.23 | 53 | 1008.5 |
| 20260508220448 | 82 | 116 | 0.9 | 0.9 | 0.00 | 0.23 | 0.23 | 55 | 1008.5 |
| 20260508215944 | 81 | 97 | 0.0 | 0.0 | 0.00 | 0.23 | 0.23 | 56 | 1008.5 |
| 20260508215442 | 82 | 129 | 0.9 | 0.9 | 0.00 | 0.23 | 0.23 | 53 | 1008.6 |
| 20260508214938 | 84 | 132 | 0.9 | 0.9 | 0.00 | 0.23 | 0.23 | 51 | 1008.4 |
| 20260508214436 | 84 | 102 | 1.7 | 2.6 | 0.00 | 0.23 | 0.23 | 51 | 1008.5 |
| 20260508213932 | 83 | 100 | 0.9 | 1.7 | 0.00 | 0.23 | 0.23 | 51 | 1008.3 |
| 20260508213430 | 83 | 71 | 0.9 | 3.5 | 0.00 | 0.23 | 0.23 | 53 | 1008.5 |
| 20260508212925 | 83 | 138 | 1.7 | 1.7 | 0.00 | 0.23 | 0.23 | 52 | 1008.4 |
| 20260508212422 | 82 | 109 | 1.7 | 1.7 | 0.00 | 0.23 | 0.23 | 54 | 1008.5 |
| 20260508211917 | 83 | 82 | 1.7 | 1.7 | 0.00 | 0.23 | 0.23 | 53 | 1008.7 |
| 20260508211414 | 82 | 99 | 0.9 | 1.7 | 0.00 | 0.23 | 0.23 | 55 | 1008.7 |
| 20260508210911 | 82 | 116 | 0.9 | 1.7 | 0.00 | 0.23 | 0.23 | 52 | 1009.0 |
| 20260508210407 | 82 | 119 | 1.7 | 2.6 | 0.00 | 0.23 | 0.23 | 52 | 1009.2 |
| 20260508205903 | 82 | 125 | 0.9 | 0.9 | 0.00 | 0.23 | 0.23 | 55 | 1009.3 |
| 20260508205401 | 81 | 31 | 0.9 | 0.9 | 0.00 | 0.23 | 0.23 | 57 | 1009.5 |
| 20260508204857 | 81 | 176 | 2.6 | 2.6 | 0.00 | 0.23 | 0.23 | 54 | 1009.8 |
| 20260508204354 | 81 | 165 | 1.7 | 1.7 | 0.00 | 0.23 | 0.23 | 54 | 1010.0 |
| 20260508203849 | 81 | 98 | 0.9 | 0.9 | 0.00 | 0.23 | 0.23 | 55 | 1009.9 |
| 20260508203346 | 81 | 96 | 1.7 | 2.6 | 0.00 | 0.23 | 0.23 | 55 | 1010.0 |
| 20260508202842 | 81 | 115 | 1.7 | 1.7 | 0.00 | 0.23 | 0.23 | 54 | 1010.0 |
| 20260508202340 | 81 | 168 | 1.7 | 1.7 | 0.00 | 0.23 | 0.23 | 54 | 1010.1 |
| 20260508201837 | 81 | 136 | 0.0 | 0.9 | 0.00 | 0.23 | 0.23 | 52 | 1010.2 |
| 20260508201334 | 82 | 111 | 1.7 | 1.7 | 0.00 | 0.23 | 0.23 | 51 | 1010.2 |
| 20260508200830 | 82 | 98 | 1.7 | 1.7 | 0.00 | 0.23 | 0.23 | 51 | 1010.5 |
| 20260508200327 | 82 | 105 | 0.9 | 0.9 | 0.00 | 0.23 | 0.23 | 51 | 1010.2 |
| 20260508195822 | 82 | 103 | 0.9 | 0.9 | 0.00 | 0.23 | 0.23 | 49 | 1010.3 |
| 20260508195319 | 83 | 117 | 0.9 | 0.9 | 0.00 | 0.23 | 0.23 | 49 | 1010.5 |
| 20260508194816 | 83 | 106 | 1.7 | 1.7 | 0.00 | 0.23 | 0.23 | 52 | 1010.6 |
| 20260508194313 | 83 | 137 | 0.9 | 0.9 | 0.00 | 0.23 | 0.23 | 48 | 1010.5 |
| 20260508193810 | 84 | 89 | 2.6 | 2.6 | 0.00 | 0.23 | 0.23 | 46 | 1010.5 |
| 20260508193307 | 84 | 114 | 0.9 | 1.7 | 0.00 | 0.23 | 0.23 | 48 | 1010.6 |
| 20260508192803 | 85 | 134 | 1.7 | 1.7 | 0.00 | 0.23 | 0.23 | 46 | 1010.5 |
| 20260508192300 | 84 | 126 | 0.9 | 0.9 | 0.00 | 0.23 | 0.23 | 49 | 1010.6 |
| 20260508191757 | 85 | 108 | 0.9 | 0.9 | 0.00 | 0.23 | 0.23 | 47 | 1010.5 |
| 20260508191254 | 85 | 121 | 0.9 | 0.9 | 0.00 | 0.23 | 0.23 | 49 | 1010.6 |
| 20260508190752 | 85 | 138 | 0.9 | 0.9 | 0.00 | 0.23 | 0.23 | 52 | 1010.8 |
| 20260508190247 | 85 | 135 | 1.7 | 1.7 | 0.00 | 0.23 | 0.23 | 48 | 1010.8 |
| 20260508185743 | 84 | 89 | 0.9 | 0.9 | 0.00 | 0.23 | 0.23 | 51 | 1010.9 |
| 20260508185241 | 83 | 120 | 0.0 | 0.0 | 0.00 | 0.23 | 0.23 | 49 | 1010.9 |
| 20260508184738 | 82 | 90 | 1.7 | 2.6 | 0.00 | 0.23 | 0.23 | 49 | 1010.7 |
| 20260508184236 | 83 | 130 | 0.0 | 0.9 | 0.00 | 0.23 | 0.23 | 48 | 1011.0 |
| 20260508183733 | 83 | 98 | 0.0 | 0.0 | 0.00 | 0.23 | 0.23 | 53 | 1010.9 |
| 20260508183229 | 83 | 118 | 0.9 | 1.7 | 0.00 | 0.23 | 0.23 | 49 | 1011.0 |
| 20260508182725 | 82 | 112 | 0.9 | 0.9 | 0.00 | 0.23 | 0.23 | 49 | 1011.3 |
| 20260508182222 | 81 | 131 | 0.0 | 0.0 | 0.00 | 0.23 | 0.23 | 53 | 1011.2 |
| 20260508181718 | 82 | 100 | 1.7 | 1.7 | 0.00 | 0.23 | 0.23 | 49 | 1011.6 |
| 20260508181215 | 82 | 103 | 0.9 | 1.7 | 0.00 | 0.23 | 0.23 | 49 | 1011.6 |
| 20260508180711 | 82 | 134 | 1.7 | 1.7 | 0.00 | 0.23 | 0.23 | 50 | 1011.8 |
| 20260508180208 | 81 | 174 | 0.9 | 0.9 | 0.00 | 0.23 | 0.23 | 52 | 1011.7 |
| 20260508175705 | 81 | 105 | 0.0 | 0.0 | 0.00 | 0.23 | 0.23 | 51 | 1012.0 |
| 20260508175201 | 80 | 124 | 1.7 | 1.7 | 0.00 | 0.23 | 0.23 | 52 | 1011.8 |
| 20260508174659 | 80 | 99 | 0.9 | 0.9 | 0.00 | 0.23 | 0.23 | 51 | 1012.0 |
| 20260508174155 | 80 | 133 | 0.9 | 0.9 | 0.00 | 0.23 | 0.23 | 53 | 1011.9 |
| 20260508173652 | 80 | 116 | 0.9 | 0.9 | 0.00 | 0.23 | 0.23 | 52 | 1012.2 |
| 20260508173148 | 79 | 103 | 0.9 | 0.9 | 0.00 | 0.23 | 0.23 | 54 | 1012.2 |
| 20260508172646 | 78 | 109 | 0.9 | 0.9 | 0.00 | 0.23 | 0.23 | 55 | 1012.4 |
| 20260508172143 | 78 | 118 | 0.9 | 1.7 | 0.00 | 0.23 | 0.23 | 53 | 1012.6 |
| 20260508171639 | 78 | 165 | 0.9 | 1.7 | 0.00 | 0.23 | 0.23 | 53 | 1012.5 |
| 20260508171135 | 79 | 100 | 2.6 | 5.2 | 0.00 | 0.23 | 0.23 | 51 | 1012.6 |
| 20260508170633 | 78 | 128 | 0.9 | 1.7 | 0.00 | 0.23 | 0.23 | 54 | 1012.7 |
| 20260508170130 | 78 | 107 | 0.9 | 0.9 | 0.00 | 0.23 | 0.23 | 56 | 1013.0 |
| 20260508165627 | 78 | 96 | 0.0 | 0.9 | 0.00 | 0.23 | 0.23 | 57 | 1013.2 |
| 20260508165124 | 77 | 95 | 0.9 | 1.7 | 0.00 | 0.23 | 0.23 | 56 | 1013.4 |
| 20260508164620 | 76 | 106 | 0.0 | 0.0 | 0.00 | 0.23 | 0.23 | 58 | 1013.2 |
| 20260508164117 | 75 | 112 | 0.9 | 0.9 | 0.00 | 0.23 | 0.23 | 56 | 1013.4 |
| 20260508163615 | 73 | 132 | 0.9 | 0.9 | 0.00 | 0.23 | 0.23 | 64 | 1013.5 |
| 20260508163112 | 71 | 129 | 0.0 | 0.9 | 0.00 | 0.23 | 0.23 | 62 | 1013.6 |
| 20260508162608 | 71 | 99 | 0.9 | 0.9 | 0.00 | 0.23 | 0.23 | 63 | 1013.6 |
| 20260508162105 | 71 | 100 | 0.9 | 0.9 | 0.00 | 0.23 | 0.23 | 64 | 1013.5 |
| 20260508161602 | 72 | 112 | 0.9 | 0.9 | 0.00 | 0.23 | 0.23 | 65 | 1013.4 |
| 20260508161059 | 71 | 90 | 0.9 | 0.9 | 0.00 | 0.23 | 0.23 | 65 | 1013.7 |
| 20260508160558 | 71 | 123 | 0.0 | 0.0 | 0.00 | 0.23 | 0.23 | 70 | 1013.8 |
| 20260508160054 | 70 | 102 | 0.0 | 0.0 | 0.00 | 0.23 | 0.23 | 68 | 1013.9 |
| 20260508155552 | 70 | 111 | 0.9 | 0.9 | 0.00 | 0.23 | 0.23 | 69 | 1013.9 |
| 20260508155048 | 70 | 102 | 0.9 | 0.9 | 0.00 | 0.23 | 0.23 | 68 | 1013.7 |
| 20260508154545 | 70 | 94 | 0.0 | 0.0 | 0.00 | 0.23 | 0.23 | 70 | 1014.2 |
| 20260508154042 | 70 | 79 | 1.7 | 1.7 | 0.00 | 0.23 | 0.23 | 69 | 1014.0 |
| 20260508153539 | 69 | 104 | 0.0 | 0.0 | 0.00 | 0.23 | 0.23 | 70 | 1014.2 |
| 20260508153036 | 69 | 131 | 0.9 | 0.9 | 0.00 | 0.23 | 0.23 | 68 | 1014.2 |
| 20260508152533 | 70 | 129 | 0.0 | 0.0 | 0.00 | 0.23 | 0.23 | 69 | 1014.3 |
| 20260508152028 | 70 | 100 | 0.0 | 0.9 | 0.00 | 0.23 | 0.23 | 68 | 1014.1 |
| 20260508151525 | 70 | 110 | 0.0 | 0.0 | 0.00 | 0.23 | 0.23 | 68 | 1014.2 |
| 20260508151022 | 70 | 108 | 0.0 | 0.0 | 0.00 | 0.23 | 0.23 | 68 | 1014.2 |
| 20260508150519 | 69 | 107 | 0.0 | 0.0 | 0.00 | 0.23 | 0.23 | 73 | 1014.2 |
| 20260508150014 | 68 | 99 | 0.9 | 0.9 | 0.00 | 0.23 | 0.23 | 71 | 1014.3 |
| 20260508145512 | 67 | 48 | 1.7 | 2.6 | 0.00 | 0.23 | 0.23 | 73 | 1014.2 |
| 20260508145008 | 66 | 109 | 0.0 | 0.0 | 0.00 | 0.23 | 0.23 | 77 | 1014.3 |
| 20260508144505 | 67 | 119 | 0.9 | 0.9 | 0.00 | 0.23 | 0.23 | 74 | 1014.3 |
| 20260508144003 | 67 | 107 | 0.0 | 0.0 | 0.00 | 0.23 | 0.23 | 74 | 1014.4 |
| 20260508143500 | 68 | 101 | 0.0 | 0.0 | 0.00 | 0.23 | 0.23 | 73 | 1014.8 |
| 20260508142956 | 68 | 105 | 0.0 | 0.0 | 0.00 | 0.23 | 0.23 | 75 | 1014.3 |
| 20260508142454 | 66 | 115 | 0.9 | 1.7 | 0.00 | 0.23 | 0.23 | 77 | 1014.4 |
| 20260508141950 | 66 | 93 | 0.9 | 1.7 | 0.00 | 0.23 | 0.23 | 79 | 1014.3 |
| 20260508141447 | 65 | 101 | 0.0 | 0.0 | 0.00 | 0.23 | 0.23 | 80 | 1014.6 |
| 20260508140945 | 65 | 104 | 0.0 | 0.0 | 0.00 | 0.23 | 0.23 | 79 | 1014.5 |
| 20260508140441 | 65 | 114 | 0.0 | 0.0 | 0.00 | 0.23 | 0.23 | 80 | 1014.7 |
| 20260508135937 | 65 | 102 | 0.0 | 0.9 | 0.00 | 0.23 | 0.23 | 83 | 1014.6 |
| 20260508135433 | 65 | 101 | 0.0 | 0.0 | 0.00 | 0.23 | 0.23 | 82 | 1014.6 |
| 20260508134930 | 64 | 114 | 0.0 | 0.0 | 0.00 | 0.23 | 0.23 | 84 | 1014.6 |
| 20260508134427 | 64 | 109 | 0.9 | 0.9 | 0.00 | 0.23 | 0.23 | 84 | 1014.7 |
| 20260508133923 | 63 | 102 | 0.0 | 0.0 | 0.00 | 0.23 | 0.23 | 85 | 1014.5 |
| 20260508133421 | 63 | 108 | 1.7 | 1.7 | 0.00 | 0.23 | 0.23 | 84 | 1014.5 |
| 20260508132918 | 63 | 102 | 0.0 | 0.9 | 0.00 | 0.23 | 0.23 | 86 | 1014.8 |
| 20260508132416 | 63 | 98 | 0.0 | 0.0 | 0.00 | 0.23 | 0.23 | 88 | 1014.6 |
| 20260508131912 | 63 | 117 | 0.0 | 0.0 | 0.00 | 0.23 | 0.23 | 87 | 1014.7 |
| 20260508131408 | 62 | 101 | 0.0 | 0.0 | 0.00 | 0.23 | 0.23 | 89 | 1014.8 |
| 20260508130905 | 62 | 106 | 1.7 | 1.7 | 0.00 | 0.23 | 0.23 | 91 | 1014.3 |
| 20260508130402 | 61 | 103 | 0.9 | 1.7 | 0.00 | 0.23 | 0.23 | 93 | 1014.1 |
| 20260508125857 | 61 | 107 | 0.0 | 0.0 | 0.00 | 0.23 | 0.23 | 94 | 1014.2 |
| 20260508125353 | 61 | 78 | 0.9 | 0.9 | 0.00 | 0.23 | 0.23 | 94 | 1014.5 |
| 20260508124852 | 60 | 111 | 0.0 | 0.0 | 0.00 | 0.23 | 0.23 | 94 | 1014.0 |
| 20260508124349 | 60 | 90 | 0.9 | 1.7 | 0.00 | 0.23 | 0.23 | 94 | 1014.5 |
| 20260508123847 | 60 | 102 | 0.0 | 0.0 | 0.00 | 0.23 | 0.23 | 94 | 1014.8 |
| 20260508123345 | 60 | 102 | 0.0 | 0.0 | 0.00 | 0.23 | 0.23 | 94 | 1015.4 |
| 20260508122841 | 60 | 102 | 0.0 | 0.0 | 0.00 | 0.23 | 0.23 | 94 | 1015.0 |
| 20260508122338 | 60 | 102 | 0.0 | 0.0 | 0.00 | 0.23 | 0.23 | 94 | 1015.0 |
| 20260508121835 | 60 | 102 | 0.0 | 0.0 | 0.00 | 0.23 | 0.23 | 94 | 1014.7 |
| 20260508121334 | 60 | 102 | 0.0 | 0.0 | 0.00 | 0.23 | 0.23 | 94 | 1014.7 |
| 20260508120831 | 60 | 102 | 0.0 | 0.0 | 0.00 | 0.23 | 0.23 | 93 | 1014.8 |
| 20260508120329 | 60 | 102 | 0.0 | 0.0 | 0.00 | 0.23 | 0.23 | 93 | 1014.7 |
| 20260508115826 | 60 | 102 | 0.0 | 0.0 | 0.05 | 0.23 | 0.23 | 93 | 1014.8 |
| 20260508115323 | 60 | 95 | 0.0 | 0.0 | 0.17 | 0.23 | 0.23 | 93 | 1014.9 |
| 20260508114820 | 60 | 109 | 0.0 | 0.0 | 0.12 | 0.22 | 0.22 | 93 | 1014.7 |
| 20260508114317 | 59 | 102 | 0.0 | 0.0 | 0.00 | 0.20 | 0.20 | 93 | 1014.9 |
| 20260508113813 | 59 | 102 | 0.0 | 0.0 | 0.19 | 0.20 | 0.20 | 92 | 1014.6 |
| 20260508113312 | 60 | 107 | 1.7 | 1.7 | 0.38 | 0.20 | 0.20 | 92 | 1014.3 |
| 20260508112807 | 59 | 131 | 0.0 | 0.0 | 0.19 | 0.17 | 0.17 | 92 | 1014.2 |
| 20260508112307 | 59 | 92 | 0.0 | 0.0 | 0.05 | 0.14 | 0.14 | 92 | 1014.3 |
| 20260508111801 | 59 | 114 | 0.0 | 0.0 | 0.05 | 0.14 | 0.14 | 91 | 1013.9 |
| 20260508111259 | 59 | 109 | 0.0 | 0.0 | 0.00 | 0.13 | 0.13 | 91 | 1013.9 |
| 20260508110756 | 59 | 103 | 0.0 | 0.9 | 0.00 | 0.13 | 0.13 | 89 | 1014.3 |
| 20260508110253 | 59 | 126 | 0.9 | 0.9 | 0.07 | 0.13 | 0.13 | 89 | 1014.2 |
| 20260508105753 | 60 | 108 | 0.9 | 0.9 | 0.07 | 0.13 | 0.13 | 90 | 1014.5 |
| 20260508105250 | 60 | 100 | 0.9 | 0.9 | 0.05 | 0.12 | 0.12 | 90 | 1014.4 |
| 20260508104747 | 60 | 75 | 0.0 | 0.9 | 0.17 | 0.12 | 0.12 | 89 | 1014.7 |
| 20260508104244 | 60 | 107 | 0.0 | 0.9 | 0.24 | 0.11 | 0.11 | 89 | 1014.7 |
| 20260508103741 | 61 | 103 | 0.0 | 0.9 | 0.24 | 0.09 | 0.09 | 88 | 1014.9 |
| 20260508103238 | 61 | 105 | 0.9 | 0.9 | 0.42 | 0.07 | 0.07 | 87 | 1014.5 |
| 20260508102735 | 62 | 112 | 0.0 | 0.0 | 0.31 | 0.05 | 0.05 | 85 | 1014.3 |
| 20260508102233 | 62 | 108 | 0.9 | 1.7 | 0.00 | 0.00 | 0.00 | 83 | 1014.2 |
| 20260508101730 | 61 | 122 | 0.0 | 0.0 | 0.00 | 0.00 | 0.00 | 83 | 1014.9 |
| 20260508101228 | 61 | 103 | 0.0 | 0.0 | 0.00 | 0.00 | 0.00 | 84 | 1014.3 |
| 20260508100725 | 61 | 103 | 0.0 | 0.0 | 0.00 | 0.00 | 0.00 | 83 | 1013.8 |
| 20260508100223 | 61 | 103 | 0.0 | 0.0 | 0.00 | 0.00 | 0.00 | 84 | 1013.6 |
| 20260508095719 | 61 | 100 | 0.0 | 0.0 | 0.00 | 0.00 | 0.00 | 84 | 1013.3 |
| 20260508095217 | 61 | 117 | 0.0 | 0.0 | 0.00 | 0.00 | 0.00 | 84 | 1013.5 |
| 20260508094713 | 61 | 92 | 0.9 | 0.9 | 0.00 | 0.00 | 0.00 | 84 | 1013.5 |
| 20260508094210 | 60 | 101 | 0.0 | 0.0 | 0.00 | 0.00 | 0.00 | 83 | 1013.6 |
| 20260508093707 | 60 | 127 | 0.0 | 0.0 | 0.00 | 0.00 | 0.00 | 83 | 1013.4 |
| 20260508093205 | 60 | 107 | 0.0 | 0.0 | 0.00 | 0.00 | 0.00 | 83 | 1013.7 |
| 20260508092702 | 60 | 106 | 0.0 | 0.0 | 0.00 | 0.00 | 0.00 | 82 | 1013.7 |
| 20260508092200 | 60 | 105 | 0.0 | 0.0 | 0.00 | 0.00 | 0.00 | 82 | 1013.8 |
| 20260508091657 | 61 | 101 | 0.0 | 0.0 | 0.00 | 0.00 | 0.00 | 82 | 1013.7 |
| 20260508091154 | 61 | 109 | 0.0 | 0.0 | 0.00 | 0.00 | 0.00 | 82 | 1013.7 |
| 20260508090652 | 61 | 101 | 0.0 | 0.0 | 0.00 | 0.00 | 0.00 | 82 | 1013.6 |
| 20260508090149 | 61 | 104 | 0.0 | 0.0 | 0.00 | 0.00 | 0.00 | 82 | 1014.1 |
| 20260508085645 | 61 | 107 | 0.0 | 0.0 | 0.00 | 0.00 | 0.00 | 81 | 1013.8 |
| 20260508085143 | 61 | 103 | 0.9 | 0.9 | 0.00 | 0.00 | 0.00 | 81 | 1014.0 |
| 20260508084639 | 61 | 108 | 0.0 | 0.0 | 0.00 | 0.00 | 0.00 | 81 | 1014.2 |
| 20260508084136 | 61 | 105 | 0.0 | 0.0 | 0.00 | 0.00 | 0.00 | 81 | 1014.3 |
| 20260508083634 | 62 | 104 | 0.0 | 0.0 | 0.00 | 0.00 | 0.00 | 81 | 1014.7 |
| 20260508083131 | 62 | 124 | 0.0 | 0.0 | 0.00 | 0.00 | 0.00 | 80 | 1014.9 |
| 20260508082626 | 62 | 111 | 0.0 | 0.0 | 0.00 | 0.00 | 0.00 | 80 | 1014.1 |
| 20260508082124 | 62 | 113 | 0.0 | 0.0 | 0.00 | 0.00 | 0.00 | 79 | 1013.9 |
| 20260508081621 | 62 | 122 | 0.9 | 0.9 | 0.00 | 0.00 | 0.00 | 79 | 1014.7 |
| 20260508081117 | 62 | 109 | 0.0 | 0.0 | 0.00 | 0.00 | 0.00 | 79 | 1014.4 |
| 20260508080615 | 62 | 97 | 0.0 | 0.9 | 0.00 | 0.00 | 0.00 | 79 | 1014.4 |
| 20260508080113 | 61 | 111 | 0.9 | 0.9 | 0.00 | 0.00 | 0.00 | 79 | 1014.5 |
| 20260508075609 | 61 | 97 | 0.9 | 0.9 | 0.00 | 0.00 | 0.00 | 78 | 1015.1 |